createdAt,value
2024-04-19T00:00:17.446Z,98407.53
2024-04-19T00:02:45.356Z,98412.09
2024-04-19T00:05:13.805Z,98409.75
2024-04-19T00:07:40.655Z,98400.72
2024-04-19T00:10:08.668Z,98400.28
2024-04-19T00:12:35.566Z,98403.53
2024-04-19T00:15:02.526Z,98404.63
2024-04-19T00:17:29.330Z,98408.59
2024-04-19T00:19:56.227Z,98403.00
2024-04-19T00:22:23.050Z,98405.41
2024-04-19T00:24:49.883Z,98399.31
2024-04-19T00:27:16.995Z,98400.59
2024-04-19T00:29:46.915Z,98390.06
2024-04-19T00:32:13.821Z,98389.81
2024-04-19T00:34:40.722Z,98393.66
2024-04-19T00:37:07.819Z,98392.00
2024-04-19T00:39:34.686Z,98390.72
2024-04-19T00:42:01.611Z,98387.66
2024-04-19T00:44:33.314Z,98386.53
2024-04-19T00:47:00.553Z,98392.59
2024-04-19T00:49:31.617Z,98390.22
2024-04-19T00:52:00.159Z,98390.59
2024-04-19T00:54:27.593Z,98389.69
2024-04-19T00:56:54.649Z,98387.50
2024-04-19T00:59:22.263Z,98390.41
2024-04-19T01:01:49.414Z,98383.13
2024-04-19T01:04:17.101Z,98382.28
2024-04-19T01:06:44.006Z,98384.81
2024-04-19T01:09:10.857Z,98386.41
2024-04-19T01:11:38.194Z,98384.50
2024-04-19T01:14:05.131Z,98388.81
2024-04-19T01:16:32.029Z,98385.59
2024-04-19T01:18:59.212Z,98384.19
2024-04-19T01:21:26.696Z,98391.59
2024-04-19T01:24:06.491Z,98391.25
2024-04-19T01:26:34.141Z,98397.16
2024-04-19T01:29:00.904Z,98397.53
2024-04-19T01:31:27.801Z,98399.38
2024-04-19T01:33:54.868Z,98401.59
2024-04-19T01:36:21.720Z,98397.19
2024-04-19T01:38:48.669Z,98401.41
2024-04-19T01:41:15.676Z,98402.13
2024-04-19T01:43:45.896Z,98394.63
2024-04-19T01:46:12.791Z,98406.19
2024-04-19T01:48:39.827Z,98404.84
2024-04-19T01:51:06.725Z,98399.00
2024-04-19T01:53:33.491Z,98393.47
2024-04-19T01:56:00.290Z,98396.28
2024-04-19T01:58:42.510Z,98391.28
2024-04-19T02:01:10.001Z,98380.56
2024-04-19T02:03:39.814Z,98388.41
2024-04-19T02:06:12.779Z,98389.50
2024-04-19T02:08:40.022Z,98392.00
2024-04-19T02:11:07.507Z,98389.00
2024-04-19T02:13:35.033Z,98389.72
2024-04-19T02:16:02.149Z,98386.84
2024-04-19T02:18:29.196Z,98383.91
2024-04-19T02:20:56.172Z,98383.44
2024-04-19T02:23:38.225Z,98377.69
2024-04-19T02:26:06.030Z,98385.44
2024-04-19T02:28:55.656Z,98382.00
2024-04-19T02:31:23.864Z,98385.03
2024-04-19T02:33:51.106Z,98376.81
2024-04-19T02:36:18.204Z,98389.28
2024-04-19T02:38:45.233Z,98397.59
2024-04-19T02:41:12.140Z,98399.81
2024-04-19T02:43:38.919Z,98387.84
2024-04-19T02:46:07.045Z,98373.66
2024-04-19T02:48:34.693Z,98389.50
2024-04-19T02:51:03.350Z,98387.00
2024-04-19T02:53:33.166Z,98386.19
2024-04-19T02:56:00.802Z,98391.59
2024-04-19T02:58:27.885Z,98378.13
2024-04-19T03:00:54.962Z,98393.25
2024-04-19T03:03:21.904Z,98388.44
2024-04-19T03:05:48.835Z,98389.03
2024-04-19T03:08:15.636Z,98386.00
2024-04-19T03:10:42.693Z,98380.13
2024-04-19T03:13:10.876Z,98382.41
2024-04-19T03:15:41.361Z,98376.97
2024-04-19T03:18:28.200Z,98387.03
2024-04-19T03:21:01.737Z,98387.47
2024-04-19T03:23:29.186Z,98374.66
2024-04-19T03:26:00.333Z,98380.13
2024-04-19T03:28:27.644Z,98378.09
2024-04-19T03:30:54.524Z,98378.78
2024-04-19T03:33:21.569Z,98361.84
2024-04-19T03:35:48.457Z,98385.41
2024-04-19T03:38:15.999Z,98376.66
2024-04-19T03:40:53.403Z,98368.59
2024-04-19T03:43:20.526Z,98379.75
2024-04-19T03:45:47.492Z,98376.50
2024-04-19T03:48:17.946Z,98356.88
2024-04-19T03:50:47.377Z,98371.59
2024-04-19T03:53:14.300Z,98365.53
2024-04-19T03:55:41.355Z,98361.31
2024-04-19T03:58:08.193Z,98365.03
2024-04-19T04:00:39.660Z,98361.88
2024-04-19T04:03:07.934Z,98366.84
2024-04-19T04:05:39.609Z,98363.34
2024-04-19T04:08:06.648Z,98365.69
2024-04-19T04:10:33.841Z,98353.81
2024-04-19T04:13:00.907Z,98368.84
2024-04-19T04:15:27.734Z,98371.75
2024-04-19T04:17:55.172Z,98374.47
2024-04-19T04:20:22.030Z,98370.13
2024-04-19T04:22:48.930Z,98371.38
2024-04-19T04:25:15.937Z,98377.28
2024-04-19T04:27:42.842Z,98383.16
2024-04-19T04:30:10.041Z,98380.19
2024-04-19T04:32:37.127Z,98374.34
2024-04-19T04:35:04.794Z,98376.78
2024-04-19T04:37:35.600Z,98372.69
2024-04-19T04:40:03.404Z,98382.53
2024-04-19T04:42:30.242Z,98379.63
2024-04-19T04:44:57.133Z,98385.56
2024-04-19T04:47:24.148Z,98389.13
2024-04-19T04:49:51.112Z,98383.59
2024-04-19T04:52:17.919Z,98385.09
2024-04-19T04:54:44.938Z,98385.75
2024-04-19T04:57:11.842Z,98387.50
2024-04-19T04:59:38.705Z,98382.06
2024-04-19T05:02:05.956Z,98387.31
2024-04-19T05:04:34.091Z,98392.22
2024-04-19T05:07:01.072Z,98388.06
2024-04-19T05:09:28.002Z,98390.06
2024-04-19T05:11:54.749Z,98383.44
2024-04-19T05:14:21.622Z,98385.13
2024-04-19T05:16:48.455Z,98394.81
2024-04-19T05:19:15.671Z,98391.59
2024-04-19T05:21:42.494Z,98392.75
2024-04-19T05:24:09.731Z,98389.97
2024-04-19T05:26:36.486Z,98393.91
2024-04-19T05:29:03.634Z,98388.09
2024-04-19T05:31:31.653Z,98405.25
2024-04-19T05:33:58.790Z,98402.91
2024-04-19T05:36:25.660Z,98410.28
2024-04-19T05:38:52.791Z,98407.13
2024-04-19T05:41:19.607Z,98392.44
2024-04-19T05:43:49.645Z,98413.06
2024-04-19T05:46:16.535Z,98379.91
2024-04-19T05:48:43.511Z,98410.78
2024-04-19T05:51:10.355Z,98413.38
2024-04-19T05:53:37.122Z,98420.34
2024-04-19T05:56:04.177Z,98424.06
2024-04-19T05:58:30.933Z,98413.53
2024-04-19T06:00:58.053Z,98414.72
2024-04-19T06:03:25.083Z,98408.78
2024-04-19T06:05:51.969Z,98406.03
2024-04-19T06:08:18.881Z,98352.72
2024-04-19T06:10:45.825Z,98408.19
2024-04-19T06:13:12.648Z,98410.03
2024-04-19T06:15:40.130Z,98407.81
2024-04-19T06:18:07.367Z,98401.03
2024-04-19T06:20:38.077Z,98405.53
2024-04-19T06:23:05.395Z,98394.19
2024-04-19T06:25:34.786Z,98400.38
2024-04-19T06:28:01.982Z,98399.69
2024-04-19T06:30:28.955Z,98392.25
2024-04-19T06:32:55.841Z,98397.91
2024-04-19T06:35:23.330Z,98399.06
2024-04-19T06:37:50.556Z,98398.78
2024-04-19T06:40:17.663Z,98397.72
2024-04-19T06:42:44.615Z,98399.91
2024-04-19T06:45:11.871Z,98403.69
2024-04-19T06:47:39.251Z,98397.00
2024-04-19T06:50:06.423Z,98395.72
2024-04-19T06:52:33.352Z,98395.53
2024-04-19T06:55:00.237Z,98383.19
2024-04-19T06:57:27.224Z,98389.06
2024-04-19T07:00:02.037Z,98388.06
2024-04-19T07:02:38.549Z,98390.03
2024-04-19T07:05:05.635Z,98386.41
2024-04-19T07:07:32.684Z,98382.09
2024-04-19T07:10:01.145Z,98377.97
2024-04-19T07:12:29.640Z,98380.63
2024-04-19T07:14:56.543Z,98379.31
2024-04-19T07:17:23.434Z,98376.41
2024-04-19T07:19:50.359Z,98374.09
2024-04-19T07:22:19.201Z,98382.31
2024-04-19T07:24:46.068Z,98377.59
2024-04-19T07:27:13.251Z,98368.66
2024-04-19T07:29:40.709Z,98355.50
2024-04-19T07:32:07.778Z,98366.91
2024-04-19T07:34:35.562Z,98358.31
2024-04-19T07:37:02.342Z,98367.22
2024-04-19T07:39:29.230Z,98356.66
2024-04-19T07:41:57.184Z,98358.34
2024-04-19T07:44:24.148Z,98354.72
2024-04-19T07:46:51.071Z,98355.38
2024-04-19T07:49:18.081Z,98348.06
2024-04-19T07:51:45.135Z,98353.69
2024-04-19T07:54:12.333Z,98346.19
2024-04-19T07:56:42.984Z,98344.69
2024-04-19T07:59:10.133Z,98348.59
2024-04-19T08:01:37.126Z,98345.47
2024-04-19T08:04:04.816Z,98341.28
2024-04-19T08:06:31.951Z,98342.88
2024-04-19T08:08:58.852Z,98341.25
2024-04-19T08:11:25.791Z,98333.25
2024-04-19T08:13:52.738Z,98328.72
2024-04-19T08:16:19.590Z,98325.16
2024-04-19T08:18:46.749Z,98318.13
2024-04-19T08:21:13.526Z,98328.03
2024-04-19T08:23:40.680Z,98319.63
2024-04-19T08:26:07.721Z,98314.19
2024-04-19T08:28:34.523Z,98318.78
2024-04-19T08:31:01.363Z,98315.63
2024-04-19T08:33:29.101Z,98305.56
2024-04-19T08:35:59.944Z,98300.47
2024-04-19T08:38:27.060Z,98304.41
2024-04-19T08:41:00.012Z,98299.88
2024-04-19T08:43:36.761Z,98299.72
2024-04-19T08:46:05.276Z,98298.19
2024-04-19T08:48:37.871Z,98296.06
2024-04-19T08:51:05.865Z,98287.63
2024-04-19T08:53:34.302Z,98280.72
2024-04-19T08:56:03.255Z,98278.94
2024-04-19T08:58:31.009Z,98274.88
2024-04-19T09:00:58.182Z,98277.75
2024-04-19T09:03:25.148Z,98279.50
2024-04-19T09:05:52.236Z,98276.63
2024-04-19T09:08:19.035Z,98273.53
2024-04-19T09:10:45.886Z,98271.47
2024-04-19T09:13:12.952Z,98263.88
2024-04-19T09:15:40.463Z,98265.53
2024-04-19T09:18:07.573Z,98262.06
2024-04-19T09:20:34.661Z,98253.19
2024-04-19T09:23:01.499Z,98256.34
2024-04-19T09:25:28.703Z,98259.88
2024-04-19T09:27:56.865Z,98264.00
2024-04-19T09:30:23.878Z,98266.56
2024-04-19T09:32:52.674Z,98254.81
2024-04-19T09:35:19.867Z,98253.41
2024-04-19T09:37:46.932Z,98257.50
2024-04-19T09:40:16.478Z,98252.31
2024-04-19T09:42:47.853Z,98249.69
2024-04-19T09:45:16.954Z,98254.25
2024-04-19T09:47:46.119Z,98243.47
2024-04-19T09:50:14.472Z,98242.97
2024-04-19T09:52:44.114Z,98232.47
2024-04-19T09:55:21.596Z,98232.66
2024-04-19T09:57:49.910Z,98225.56
2024-04-19T10:00:16.965Z,98224.88
2024-04-19T10:02:47.440Z,98223.28
2024-04-19T10:05:14.821Z,98222.94
2024-04-19T10:07:42.815Z,98220.63
2024-04-19T10:10:09.752Z,98212.78
2024-04-19T10:12:40.083Z,98217.25
2024-04-19T10:15:15.087Z,98209.56
2024-04-19T10:17:42.209Z,98209.00
2024-04-19T10:20:12.188Z,98187.84
2024-04-19T10:22:42.510Z,98201.38
2024-04-19T10:25:09.352Z,98204.88
2024-04-19T10:27:36.576Z,98199.22
2024-04-19T10:30:11.722Z,98192.41
2024-04-19T10:32:43.629Z,98197.94
2024-04-19T10:35:16.613Z,98183.03
2024-04-19T10:37:43.479Z,98185.50
2024-04-19T10:40:13.177Z,98178.31
2024-04-19T10:42:42.095Z,98172.34
2024-04-19T10:45:15.703Z,98169.75
2024-04-19T10:47:43.650Z,98162.59
2024-04-19T10:50:10.784Z,98152.47
2024-04-19T10:52:38.430Z,98153.44
2024-04-19T10:55:05.607Z,98145.06
2024-04-19T10:57:33.413Z,98150.84
2024-04-19T11:00:00.432Z,98136.75
2024-04-19T11:02:28.361Z,98127.44
2024-04-19T11:04:55.484Z,98134.72
2024-04-19T11:07:22.942Z,98127.88
2024-04-19T11:09:50.198Z,98131.97
2024-04-19T11:12:17.297Z,98120.22
2024-04-19T11:14:44.145Z,98112.31
2024-04-19T11:17:11.151Z,98105.63
2024-04-19T11:19:38.025Z,98101.59
2024-04-19T11:22:05.276Z,98087.22
2024-04-19T11:24:35.461Z,98096.03
2024-04-19T11:27:02.945Z,98088.34
2024-04-19T11:29:30.492Z,98079.75
2024-04-19T11:31:57.411Z,98084.56
2024-04-19T11:34:31.905Z,98092.00
2024-04-19T11:37:05.139Z,98071.53
2024-04-19T11:39:32.965Z,98075.06
2024-04-19T11:42:00.389Z,98069.75
2024-04-19T11:44:27.728Z,98060.66
2024-04-19T11:46:55.674Z,98051.31
2024-04-19T11:49:24.009Z,98055.75
2024-04-19T11:51:50.872Z,98050.69
2024-04-19T11:54:19.015Z,98044.31
2024-04-19T11:56:45.957Z,98039.06
2024-04-19T11:59:21.513Z,98042.53
2024-04-19T12:01:48.296Z,98041.31
2024-04-19T12:04:15.278Z,98036.66
2024-04-19T12:06:42.579Z,98035.59
2024-04-19T12:09:09.706Z,98023.84
2024-04-19T12:11:36.567Z,98030.00
2024-04-19T12:16:42.116Z,98015.28
2024-04-19T12:19:14.875Z,98000.41
2024-04-19T12:21:42.591Z,97988.69
2024-04-19T12:24:11.533Z,97993.91
2024-04-19T12:26:39.662Z,97991.63
2024-04-19T12:29:07.952Z,97982.47
2024-04-19T12:31:36.723Z,97986.00
2024-04-19T12:34:05.219Z,97976.06
2024-04-19T12:36:32.300Z,97966.91
2024-04-19T12:38:59.222Z,97970.72
2024-04-19T12:41:33.064Z,97964.19
2024-04-19T12:44:00.453Z,97958.56
2024-04-19T12:46:27.444Z,97955.03
2024-04-19T12:49:03.255Z,97953.81
2024-04-19T12:51:30.316Z,97957.06
2024-04-19T12:53:57.493Z,97934.38
2024-04-19T12:56:24.513Z,97926.75
2024-04-19T12:58:52.539Z,97922.94
2024-04-19T13:01:20.368Z,97917.38
2024-04-19T13:03:50.641Z,97925.38
2024-04-19T13:06:18.802Z,97918.59
2024-04-19T13:08:45.865Z,97916.50
2024-04-19T13:11:12.824Z,97913.91
2024-04-19T13:13:54.646Z,97903.22
2024-04-19T13:16:22.277Z,97899.53
2024-04-19T13:18:49.839Z,97894.59
2024-04-19T13:21:17.200Z,97889.00
2024-04-19T13:23:44.147Z,97875.88
2024-04-19T13:26:11.521Z,97879.69
2024-04-19T13:28:40.499Z,97872.41
2024-04-19T13:31:07.756Z,97879.66
2024-04-19T13:33:35.765Z,97865.41
2024-04-19T13:36:02.784Z,97865.13
2024-04-19T13:38:29.785Z,97864.94
2024-04-19T13:40:56.576Z,97860.16
2024-04-19T13:43:23.443Z,97860.69
2024-04-19T13:45:50.996Z,97859.56
2024-04-19T13:48:18.611Z,97852.63
2024-04-19T13:50:45.572Z,97849.50
2024-04-19T13:53:13.097Z,97839.38
2024-04-19T13:55:40.139Z,97840.75
2024-04-19T13:58:07.667Z,97839.34
2024-04-19T14:00:34.691Z,97831.97
2024-04-19T14:03:01.602Z,97822.25
2024-04-19T14:05:29.440Z,97826.66
2024-04-19T14:07:56.432Z,97825.91
2024-04-19T14:10:23.312Z,97817.16
2024-04-19T14:12:52.985Z,97813.06
2024-04-19T14:15:19.895Z,97804.47
2024-04-19T14:17:46.757Z,97815.13
2024-04-19T14:20:13.612Z,97799.50
2024-04-19T14:22:40.423Z,97802.47
2024-04-19T14:25:09.737Z,97792.25
2024-04-19T14:27:36.828Z,97786.34
2024-04-19T14:30:03.957Z,97783.47
2024-04-19T14:32:30.861Z,97782.28
2024-04-19T14:34:58.177Z,97777.81
2024-04-19T14:37:25.164Z,97771.63
2024-04-19T14:39:52.126Z,97764.84
2024-04-19T14:42:18.888Z,97763.34
2024-04-19T14:44:45.732Z,97763.13
2024-04-19T14:47:12.500Z,97772.56
2024-04-19T14:49:39.398Z,97763.44
2024-04-19T14:52:12.560Z,97763.19
2024-04-19T14:54:40.462Z,97760.50
2024-04-19T14:57:07.520Z,97760.53
2024-04-19T14:59:34.416Z,97749.56
2024-04-19T15:02:03.230Z,97745.47
2024-04-19T15:04:30.340Z,97745.75
2024-04-19T15:06:57.249Z,97741.00
2024-04-19T15:09:24.271Z,97743.72
2024-04-19T15:11:51.212Z,97740.09
2024-04-19T15:14:18.049Z,97739.50
2024-04-19T15:16:45.094Z,97741.81
2024-04-19T15:19:12.143Z,97744.06
2024-04-19T15:21:39.003Z,97736.25
2024-04-19T15:24:06.264Z,97739.50
2024-04-19T15:26:33.110Z,97733.44
2024-04-19T15:28:59.953Z,97717.56
2024-04-19T15:31:28.763Z,97723.72
2024-04-19T15:33:58.929Z,97721.72
2024-04-19T15:36:27.732Z,97719.94
2024-04-19T15:38:56.049Z,97717.34
2024-04-19T15:41:34.645Z,97711.47
2024-04-19T15:44:08.140Z,97710.91
2024-04-19T15:46:35.005Z,97712.66
2024-04-19T15:49:01.933Z,97713.66
2024-04-19T15:51:28.883Z,97709.91
2024-04-19T15:53:55.723Z,97709.28
2024-04-19T15:56:22.530Z,97701.94
2024-04-19T15:58:49.534Z,97705.63
2024-04-19T16:01:17.019Z,97697.63
2024-04-19T16:03:43.947Z,97697.16
2024-04-19T16:06:10.878Z,97698.69
2024-04-19T16:08:37.843Z,97693.38
2024-04-19T16:11:04.901Z,97700.41
2024-04-19T16:13:31.759Z,97707.84
2024-04-19T16:16:06.353Z,97704.44
2024-04-19T16:18:34.155Z,97708.69
2024-04-19T16:21:01.045Z,97705.03
2024-04-19T16:23:30.253Z,97704.75
2024-04-19T16:25:57.158Z,97698.19
2024-04-19T16:28:24.383Z,97701.34
2024-04-19T16:30:51.187Z,97697.94
2024-04-19T16:33:18.191Z,97698.47
2024-04-19T16:35:56.086Z,97699.06
2024-04-19T16:38:30.706Z,97694.44
2024-04-19T16:40:57.651Z,97686.53
2024-04-19T16:43:24.579Z,97692.78
2024-04-19T16:45:51.604Z,97688.56
2024-04-19T16:48:19.209Z,97686.38
2024-04-19T16:50:46.025Z,97685.41
2024-04-19T16:53:12.929Z,97683.38
2024-04-19T16:55:39.780Z,97678.34
2024-04-19T16:58:07.845Z,97667.97
2024-04-19T17:00:34.874Z,97674.63
2024-04-19T17:03:01.738Z,97669.31
2024-04-19T17:05:28.677Z,97662.63
2024-04-19T17:07:55.728Z,97662.50
2024-04-19T17:10:22.669Z,97662.97
2024-04-19T17:12:49.604Z,97664.19
2024-04-19T17:15:17.079Z,97655.50
2024-04-19T17:17:44.473Z,97653.28
2024-04-19T17:20:11.399Z,97648.53
2024-04-19T17:22:38.645Z,97651.53
2024-04-19T17:25:05.771Z,97652.75
2024-04-19T17:27:32.722Z,97653.03
2024-04-19T17:29:59.569Z,97649.78
2024-04-19T17:32:26.779Z,97656.44
2024-04-19T17:34:53.676Z,97663.69
2024-04-19T17:37:21.390Z,97660.97
2024-04-19T17:39:48.534Z,97662.06
2024-04-19T17:42:15.523Z,97651.72
2024-04-19T17:44:42.452Z,97654.44
2024-04-19T17:47:09.408Z,97654.72
2024-04-19T17:49:36.367Z,97648.19
2024-04-19T17:52:04.234Z,97641.78
2024-04-19T17:54:33.437Z,97643.94
2024-04-19T17:57:02.002Z,97634.00
2024-04-19T17:59:28.780Z,97644.34
2024-04-19T18:01:55.615Z,97640.78
2024-04-19T18:04:23.393Z,97636.97
2024-04-19T18:06:50.369Z,97640.13
2024-04-19T18:09:17.195Z,97645.16
2024-04-19T18:11:43.925Z,97640.00
2024-04-19T18:14:10.653Z,97653.66
2024-04-19T18:16:41.163Z,97645.41
2024-04-19T18:19:08.593Z,97643.91
2024-04-19T18:21:35.529Z,97645.16
2024-04-19T18:24:04.806Z,97647.59
2024-04-19T18:26:33.559Z,97646.66
2024-04-19T18:29:00.464Z,97652.19
2024-04-19T18:31:27.735Z,97651.34
2024-04-19T18:34:01.748Z,97650.91
2024-04-19T18:36:28.746Z,97649.31
2024-04-19T18:38:55.539Z,97657.28
2024-04-19T18:41:24.913Z,97655.84
2024-04-19T18:43:52.555Z,97654.81
2024-04-19T18:46:19.799Z,97662.97
2024-04-19T18:48:46.870Z,97659.88
2024-04-19T18:51:14.631Z,97667.16
2024-04-19T18:53:41.316Z,97664.59
2024-04-19T18:56:08.213Z,97657.41
2024-04-19T18:58:34.992Z,97662.25
2024-04-19T19:01:11.340Z,97670.16
2024-04-19T19:03:38.579Z,97673.38
2024-04-19T19:06:05.699Z,97670.59
2024-04-19T19:08:32.710Z,97672.31
2024-04-19T19:10:59.499Z,97682.63
2024-04-19T19:13:26.312Z,97687.59
2024-04-19T19:15:56.874Z,97690.41
2024-04-19T19:18:26.656Z,97682.34
2024-04-19T19:20:54.040Z,97691.22
2024-04-19T19:23:20.801Z,97700.75
2024-04-19T19:25:48.549Z,97705.56
2024-04-19T19:28:16.570Z,97706.00
2024-04-19T19:30:44.329Z,97704.72
2024-04-19T19:33:11.447Z,97710.38
2024-04-19T19:35:39.112Z,97708.56
2024-04-19T19:38:06.282Z,97711.41
2024-04-19T19:40:33.581Z,97713.00
2024-04-19T19:43:00.723Z,97709.75
2024-04-19T19:45:27.802Z,97715.47
2024-04-19T19:47:54.741Z,97717.06
2024-04-19T19:50:21.667Z,97716.72
2024-04-19T19:52:48.509Z,97721.94
2024-04-19T19:55:15.632Z,97709.72
2024-04-19T19:57:42.622Z,97707.91
2024-04-19T20:00:28.316Z,97700.31
2024-04-19T20:03:13.399Z,97703.88
2024-04-19T20:05:50.682Z,97714.94
2024-04-19T20:08:17.755Z,97712.91
2024-04-19T20:10:45.022Z,97711.59
2024-04-19T20:13:12.153Z,97705.34
2024-04-19T20:15:39.334Z,97698.16
2024-04-19T20:18:06.526Z,97704.38
2024-04-19T20:20:33.350Z,97698.22
2024-04-19T20:23:00.286Z,97698.00
2024-04-19T20:25:28.274Z,97693.84
2024-04-19T20:27:55.261Z,97691.81
2024-04-19T20:30:22.129Z,97692.94
2024-04-19T20:32:49.020Z,97693.78
2024-04-19T20:35:16.119Z,97698.06
2024-04-19T20:37:42.961Z,97697.22
2024-04-19T20:40:10.012Z,97690.75
2024-04-19T20:42:37.118Z,97687.53
2024-04-19T20:45:04.549Z,97690.75
2024-04-19T20:47:36.244Z,97684.63
2024-04-19T20:50:03.431Z,97692.63
2024-04-19T20:52:30.192Z,97696.09
2024-04-19T20:54:57.142Z,97695.13
2024-04-19T20:57:24.209Z,97696.19
2024-04-19T20:59:51.157Z,97697.09
2024-04-19T21:02:19.015Z,97710.75
2024-04-19T21:04:46.065Z,97712.81
2024-04-19T21:07:13.166Z,97701.22
2024-04-19T21:09:40.188Z,97696.69
2024-04-19T21:12:07.780Z,97688.72
2024-04-19T21:14:35.670Z,97686.66
2024-04-19T21:17:02.499Z,97686.13
2024-04-19T21:19:29.406Z,97686.69
2024-04-19T21:21:56.457Z,97696.38
2024-04-19T21:24:23.933Z,97692.78
2024-04-19T21:26:51.102Z,97699.25
2024-04-19T21:29:17.963Z,97688.09
2024-04-19T21:31:44.798Z,97698.66
2024-04-19T21:34:11.849Z,97687.09
2024-04-19T21:36:41.025Z,97679.41
2024-04-19T21:39:07.864Z,97674.16
2024-04-19T21:41:34.871Z,97676.53
2024-04-19T21:44:01.853Z,97671.50
2024-04-19T21:46:30.878Z,97668.63
2024-04-19T21:48:58.184Z,97673.53
2024-04-19T21:51:25.482Z,97666.38
2024-04-19T21:53:52.469Z,97660.41
2024-04-19T21:56:19.445Z,97663.06
2024-04-19T21:58:46.458Z,97658.38
2024-04-19T22:01:13.711Z,97665.53
2024-04-19T22:03:41.035Z,97661.69
2024-04-19T22:06:07.893Z,97661.22
2024-04-19T22:08:34.746Z,97657.94
2024-04-19T22:11:07.026Z,97655.13
2024-04-19T22:13:33.875Z,97646.13
2024-04-19T22:16:08.175Z,97638.03
2024-04-19T22:18:36.708Z,97628.22
2024-04-19T22:21:14.230Z,97625.63
2024-04-19T22:23:44.384Z,97640.59
2024-04-19T22:26:11.598Z,97644.84
2024-04-19T22:28:39.112Z,97639.22
2024-04-19T22:31:07.398Z,97633.38
2024-04-19T22:33:35.381Z,97637.34
2024-04-19T22:36:09.152Z,97633.59
2024-04-19T22:38:37.675Z,97651.16
2024-04-19T22:41:04.836Z,97651.63
2024-04-19T22:43:33.785Z,97660.63
2024-04-19T22:46:05.354Z,97652.09
2024-04-19T22:48:33.557Z,97644.06
2024-04-19T22:51:00.402Z,97637.59
2024-04-19T22:53:27.561Z,97657.44
2024-04-19T22:55:55.814Z,97633.09
2024-04-19T22:58:23.268Z,97641.94
2024-04-19T23:00:50.195Z,97638.38
2024-04-19T23:03:17.516Z,97635.28
2024-04-19T23:05:44.376Z,97634.97
2024-04-19T23:08:11.328Z,97641.38
2024-04-19T23:10:38.325Z,97634.94
2024-04-19T23:13:06.639Z,97634.00
2024-04-19T23:15:34.879Z,97627.63
2024-04-19T23:18:02.403Z,97627.34
2024-04-19T23:20:29.339Z,97632.72
2024-04-19T23:22:56.609Z,97620.78
2024-04-19T23:25:23.450Z,97624.59
2024-04-19T23:27:50.348Z,97621.19
2024-04-19T23:30:17.429Z,97619.09
2024-04-19T23:32:44.455Z,97578.28
2024-04-19T23:35:11.338Z,97579.28
2024-04-19T23:37:39.279Z,97578.09
2024-04-19T23:40:07.527Z,97574.38
2024-04-19T23:42:34.438Z,97574.16
2024-04-19T23:45:01.241Z,97587.50
2024-04-19T23:47:31.303Z,97577.66
2024-04-19T23:49:58.707Z,97571.47
2024-04-19T23:52:25.498Z,97569.50
2024-04-19T23:54:52.585Z,97578.16
2024-04-19T23:57:19.414Z,97589.63
2024-04-19T23:59:46.232Z,97590.66
